createdAt,value
2022-09-28T00:00:30.894Z,92.80
2022-09-28T00:01:30.938Z,93.21
2022-09-28T00:02:31.018Z,93.21
2022-09-28T00:03:30.872Z,93.01
2022-09-28T00:04:30.919Z,92.80
2022-09-28T00:05:30.875Z,92.70
2022-09-28T00:06:30.865Z,93.21
2022-09-28T00:07:30.864Z,93.73
2022-09-28T00:08:30.864Z,93.63
2022-09-28T00:09:30.878Z,93.73
2022-09-28T00:10:30.856Z,93.32
2022-09-28T00:11:30.853Z,93.32
2022-09-28T00:12:30.864Z,92.91
2022-09-28T00:13:30.815Z,92.46
2022-09-28T00:14:30.856Z,91.84
2022-09-28T00:15:30.966Z,91.49
2022-09-28T00:16:30.911Z,91.33
2022-09-28T00:17:30.817Z,90.97
2022-09-28T00:18:30.803Z,91.02
2022-09-28T00:19:30.797Z,90.87
2022-09-28T00:20:30.796Z,90.67
2022-09-28T00:21:30.874Z,90.36
2022-09-28T00:22:30.816Z,90.46
2022-09-28T00:23:30.792Z,91.22
2022-09-28T00:24:30.780Z,91.53
2022-09-28T00:25:30.813Z,91.49
2022-09-28T00:26:30.771Z,91.33
2022-09-28T00:27:30.842Z,91.94
2022-09-28T00:28:30.757Z,92.14
2022-09-28T00:29:30.759Z,91.74
2022-09-28T00:30:30.747Z,91.94
2022-09-28T00:31:30.812Z,92.60
2022-09-28T00:32:30.788Z,93.32
2022-09-28T00:33:30.737Z,93.21
2022-09-28T00:34:30.728Z,93.57
2022-09-28T00:35:30.715Z,93.77
2022-09-28T00:36:30.724Z,94.24
2022-09-28T00:37:30.873Z,93.77
2022-09-28T00:38:30.700Z,94.45
2022-09-28T00:39:30.732Z,93.93
2022-09-28T00:40:30.788Z,93.52
2022-09-28T00:41:30.695Z,93.42
2022-09-28T00:42:30.702Z,93.42
2022-09-28T00:43:30.683Z,93.83
2022-09-28T00:44:30.745Z,93.52
2022-09-28T00:45:30.800Z,93.32
2022-09-28T00:46:30.657Z,92.97
2022-09-28T00:47:30.666Z,93.17
2022-09-28T00:48:30.676Z,93.21
2022-09-28T00:49:30.648Z,93.42
2022-09-28T00:50:30.655Z,93.52
2022-09-28T00:51:30.631Z,93.12
2022-09-28T00:52:30.630Z,93.32
2022-09-28T00:53:30.661Z,93.32
2022-09-28T00:54:30.621Z,93.63
2022-09-28T00:55:30.625Z,93.63
2022-09-28T00:56:30.636Z,93.63
2022-09-28T00:57:30.613Z,93.79
2022-09-28T00:58:31.637Z,92.97
2022-09-28T00:59:30.614Z,93.17
2022-09-28T01:00:30.644Z,92.97
2022-09-28T01:01:30.587Z,92.76
2022-09-28T01:02:30.643Z,92.76
2022-09-28T01:03:30.592Z,92.76
2022-09-28T01:04:30.572Z,92.55
2022-09-28T01:05:30.569Z,92.10
2022-09-28T01:06:30.590Z,92.35
2022-09-28T01:07:30.549Z,92.55
2022-09-28T01:08:30.557Z,92.80
2022-09-28T01:09:30.545Z,92.97
2022-09-28T01:10:30.708Z,93.17
2022-09-28T01:11:30.624Z,93.27
2022-09-28T01:12:30.531Z,92.97
2022-09-28T01:13:30.535Z,92.76
2022-09-28T01:14:30.525Z,92.76
2022-09-28T01:15:30.547Z,92.31
2022-09-28T01:16:30.676Z,92.21
2022-09-28T01:17:30.515Z,92.10
2022-09-28T01:18:30.498Z,92.72
2022-09-28T01:19:30.525Z,92.31
2022-09-28T01:20:30.493Z,92.31
2022-09-28T01:21:30.497Z,92.31
2022-09-28T01:22:30.497Z,92.00
2022-09-28T01:23:30.480Z,92.21
2022-09-28T01:24:30.512Z,91.69
2022-09-28T01:25:30.478Z,92.51
2022-09-28T01:26:30.537Z,91.90
2022-09-28T01:27:30.486Z,91.94
2022-09-28T01:28:30.494Z,92.61
2022-09-28T01:29:30.462Z,92.86
2022-09-28T01:30:30.455Z,92.55
2022-09-28T01:31:30.512Z,92.55
2022-09-28T01:32:30.441Z,92.61
2022-09-28T01:33:30.442Z,92.41
2022-09-28T01:34:30.449Z,93.17
2022-09-28T01:35:31.429Z,93.13
2022-09-28T01:36:30.425Z,93.23
2022-09-28T01:37:30.418Z,92.61
2022-09-28T01:38:30.413Z,92.61
2022-09-28T01:39:30.450Z,92.21
2022-09-28T01:40:30.514Z,92.10
2022-09-28T01:41:30.402Z,91.96
2022-09-28T01:42:30.389Z,91.44
2022-09-28T01:43:30.386Z,91.69
2022-09-28T01:44:30.376Z,91.75
2022-09-28T01:45:30.431Z,91.55
2022-09-28T01:46:30.364Z,91.55
2022-09-28T01:47:30.412Z,91.55
2022-09-28T01:48:30.415Z,91.55
2022-09-28T01:49:30.404Z,90.93
2022-09-28T01:50:30.372Z,91.35
2022-09-28T01:51:30.330Z,91.03
2022-09-28T01:52:30.354Z,91.03
2022-09-28T01:53:30.344Z,92.04
2022-09-28T01:54:30.370Z,92.55
2022-09-28T01:55:30.326Z,93.63
2022-09-28T01:56:30.321Z,93.83
2022-09-28T01:57:30.326Z,94.40
2022-09-28T01:58:30.330Z,94.76
2022-09-28T01:59:30.355Z,94.65
2022-09-28T02:00:30.396Z,94.34
2022-09-28T02:01:30.319Z,95.72
2022-09-28T02:02:30.351Z,95.62
2022-09-28T02:03:30.284Z,96.34
2022-09-28T02:04:30.273Z,96.34
2022-09-28T02:05:30.341Z,96.14
2022-09-28T02:06:30.274Z,96.34
2022-09-28T02:07:30.362Z,96.34
2022-09-28T02:08:30.266Z,96.85
2022-09-28T02:09:33.702Z,96.55
2022-09-28T02:10:31.295Z,96.75
2022-09-28T02:11:30.280Z,96.65
2022-09-28T02:12:30.256Z,96.85
2022-09-28T02:13:30.248Z,96.70
2022-09-28T02:14:30.296Z,96.91
2022-09-28T02:15:30.244Z,96.30
2022-09-28T02:16:30.278Z,96.14
2022-09-28T02:17:30.311Z,96.50
2022-09-28T02:18:30.251Z,95.89
2022-09-28T02:19:30.230Z,95.37
2022-09-28T02:20:30.221Z,95.53
2022-09-28T02:21:30.209Z,95.06
2022-09-28T02:22:30.203Z,95.27
2022-09-28T02:23:30.240Z,95.68
2022-09-28T02:24:30.182Z,95.93
2022-09-28T02:25:30.284Z,96.18
2022-09-28T02:26:30.169Z,96.85
2022-09-28T02:27:30.203Z,97.02
2022-09-28T02:28:30.211Z,96.95
2022-09-28T02:29:30.214Z,96.95
2022-09-28T02:30:30.187Z,96.65
2022-09-28T02:31:30.181Z,96.95
2022-09-28T02:32:30.139Z,96.85
2022-09-28T02:33:30.128Z,96.95
2022-09-28T02:34:30.154Z,96.65
2022-09-28T02:35:30.168Z,96.60
2022-09-28T02:36:30.197Z,96.91
2022-09-28T02:37:30.128Z,96.95
2022-09-28T02:38:30.107Z,96.30
2022-09-28T02:39:30.118Z,96.30
2022-09-28T02:40:30.220Z,95.98
2022-09-28T02:41:30.120Z,95.42
2022-09-28T02:42:30.140Z,96.03
2022-09-28T02:43:30.092Z,96.34
2022-09-28T02:44:30.095Z,96.30
2022-09-28T02:45:30.111Z,96.19
2022-09-28T02:46:30.111Z,96.70
2022-09-28T02:47:30.117Z,96.04
2022-09-28T02:48:43.121Z,95.23
2022-09-28T02:49:32.197Z,95.53
2022-09-28T02:50:30.052Z,95.02
2022-09-28T02:51:30.055Z,94.67
2022-09-28T02:52:30.120Z,94.15
2022-09-28T02:53:30.039Z,93.54
2022-09-28T02:54:30.030Z,93.23
2022-09-28T02:55:30.055Z,92.82
2022-09-28T02:56:30.022Z,92.10
2022-09-28T02:57:30.042Z,91.69
2022-09-28T02:58:30.061Z,91.55
2022-09-28T02:59:30.012Z,91.18
2022-09-28T03:00:30.022Z,90.62
2022-09-28T03:01:30.010Z,90.01
2022-09-28T03:02:30.045Z,90.01
2022-09-28T03:03:30.044Z,89.70
2022-09-28T03:04:29.993Z,89.70
2022-09-28T03:05:29.985Z,88.37
2022-09-28T03:06:29.989Z,89.19
2022-09-28T03:07:29.967Z,87.85
2022-09-28T03:08:30.003Z,88.06
2022-09-28T03:09:29.970Z,88.47
2022-09-28T03:10:29.968Z,88.68
2022-09-28T03:11:29.951Z,88.27
2022-09-28T03:12:30.008Z,88.27
2022-09-28T03:13:29.971Z,88.47
2022-09-28T03:14:29.985Z,88.06
2022-09-28T03:15:29.953Z,87.96
2022-09-28T03:16:30.017Z,87.96
2022-09-28T03:17:29.936Z,87.92
2022-09-28T03:18:29.938Z,87.71
2022-09-28T03:19:29.976Z,87.65
2022-09-28T03:20:29.923Z,88.12
2022-09-28T03:21:29.915Z,87.96
2022-09-28T03:22:29.899Z,87.71
2022-09-28T03:23:29.909Z,87.41
2022-09-28T03:24:29.957Z,87.34
2022-09-28T03:25:29.885Z,88.92
2022-09-28T03:26:29.896Z,89.54
2022-09-28T03:27:29.889Z,89.75
2022-09-28T03:28:29.874Z,89.43
2022-09-28T03:29:29.918Z,89.90
2022-09-28T03:30:29.875Z,89.54
2022-09-28T03:31:29.950Z,89.75
2022-09-28T03:32:29.866Z,89.81
2022-09-28T03:33:29.867Z,89.33
2022-09-28T03:34:29.846Z,89.95
2022-09-28T03:35:29.861Z,90.56
2022-09-28T03:36:30.884Z,90.77
2022-09-28T03:37:29.861Z,91.02
2022-09-28T03:38:29.850Z,91.08
2022-09-28T03:39:29.824Z,91.08
2022-09-28T03:40:29.940Z,91.38
2022-09-28T03:41:29.854Z,91.59
2022-09-28T03:42:29.845Z,91.59
2022-09-28T03:43:29.801Z,91.80
2022-09-28T03:44:29.810Z,91.90
2022-09-28T03:45:29.852Z,91.80
2022-09-28T03:46:29.848Z,91.86
2022-09-28T03:47:29.826Z,91.59
2022-09-28T03:48:32.332Z,91.24
2022-09-28T03:49:30.843Z,91.03
2022-09-28T03:50:29.790Z,90.93
2022-09-28T03:51:29.787Z,90.93
2022-09-28T03:52:29.820Z,90.62
2022-09-28T03:53:29.924Z,90.42
2022-09-28T03:54:29.789Z,90.01
2022-09-28T03:55:29.758Z,89.90
2022-09-28T03:56:29.763Z,89.81
2022-09-28T03:57:29.795Z,89.50
2022-09-28T03:58:29.733Z,89.64
2022-09-28T03:59:29.732Z,90.52
2022-09-28T04:00:29.755Z,90.77
2022-09-28T04:01:29.808Z,90.87
2022-09-28T04:02:29.778Z,91.28
2022-09-28T04:03:29.765Z,91.69
2022-09-28T04:04:29.753Z,91.80
2022-09-28T04:05:29.723Z,91.80
2022-09-28T04:06:29.782Z,92.00
2022-09-28T04:07:31.214Z,92.00
2022-09-28T04:08:30.713Z,91.96
2022-09-28T04:09:29.700Z,91.55
2022-09-28T04:10:29.685Z,91.69
2022-09-28T04:11:38.488Z,91.59
2022-09-28T04:12:31.687Z,92.21
2022-09-28T04:13:29.681Z,92.31
2022-09-28T04:14:29.662Z,92.61
2022-09-28T04:15:29.698Z,92.10
2022-09-28T04:16:29.774Z,91.90
2022-09-28T04:17:29.662Z,91.80
2022-09-28T04:18:29.687Z,91.38
2022-09-28T04:19:29.635Z,91.38
2022-09-28T04:20:29.698Z,91.44
2022-09-28T04:21:29.693Z,91.55
2022-09-28T04:22:29.671Z,91.14
2022-09-28T04:23:29.637Z,90.83
2022-09-28T04:24:29.669Z,91.03
2022-09-28T04:25:29.649Z,91.03
2022-09-28T04:26:29.613Z,91.24
2022-09-28T04:27:29.647Z,90.93
2022-09-28T04:28:29.617Z,90.73
2022-09-28T04:29:29.633Z,90.11
2022-09-28T04:30:29.607Z,90.69
2022-09-28T04:31:29.634Z,90.73
2022-09-28T04:32:29.629Z,90.07
2022-09-28T04:33:29.586Z,89.97
2022-09-28T04:34:34.502Z,89.97
2022-09-28T04:35:31.601Z,89.45
2022-09-28T04:36:29.591Z,89.45
2022-09-28T04:37:29.551Z,89.97
2022-09-28T04:38:51.385Z,90.28
2022-09-28T04:39:31.543Z,90.17
2022-09-28T04:40:29.601Z,90.28
2022-09-28T04:41:29.527Z,89.92
2022-09-28T04:42:29.572Z,89.25
2022-09-28T04:43:29.544Z,89.15
2022-09-28T04:44:29.589Z,89.45
2022-09-28T04:45:29.565Z,89.36
2022-09-28T04:46:29.540Z,89.87
2022-09-28T04:47:29.508Z,89.42
2022-09-28T04:48:29.502Z,89.92
2022-09-28T04:49:29.532Z,89.36
2022-09-28T04:50:29.569Z,89.83
2022-09-28T04:51:29.487Z,89.83
2022-09-28T04:52:29.497Z,89.42
2022-09-28T04:53:29.515Z,89.21
2022-09-28T04:54:29.500Z,89.76
2022-09-28T04:55:29.474Z,88.94
2022-09-28T04:56:29.466Z,89.25
2022-09-28T04:57:29.466Z,89.56
2022-09-28T04:58:29.493Z,88.84
2022-09-28T04:59:29.466Z,89.39
2022-09-28T05:00:29.445Z,89.81
2022-09-28T05:01:29.483Z,89.56
2022-09-28T05:02:29.509Z,89.97
2022-09-28T05:03:29.472Z,89.29
2022-09-28T05:04:29.596Z,89.56
2022-09-28T05:05:29.410Z,89.70
2022-09-28T05:06:29.425Z,89.50
2022-09-28T05:07:29.407Z,89.97
2022-09-28T05:08:29.406Z,89.76
2022-09-28T05:09:29.453Z,90.07
2022-09-28T05:10:29.474Z,89.81
2022-09-28T05:11:29.410Z,89.56
2022-09-28T05:12:29.404Z,89.50
2022-09-28T05:13:29.420Z,89.29
2022-09-28T05:14:29.383Z,89.29
2022-09-28T05:15:29.460Z,89.25
2022-09-28T05:16:29.405Z,89.39
2022-09-28T05:17:29.372Z,88.84
2022-09-28T05:18:29.386Z,89.15
2022-09-28T05:19:29.351Z,89.50
2022-09-28T05:20:29.362Z,89.19
2022-09-28T05:21:29.339Z,88.78
2022-09-28T05:22:29.339Z,88.64
2022-09-28T05:23:29.352Z,88.78
2022-09-28T05:24:29.391Z,88.88
2022-09-28T05:25:29.319Z,88.84
2022-09-28T05:26:29.333Z,89.29
2022-09-28T05:27:29.313Z,89.60
2022-09-28T05:28:29.331Z,89.45
2022-09-28T05:29:32.207Z,89.25
2022-09-28T05:30:30.338Z,89.50
2022-09-28T05:31:29.446Z,89.09
2022-09-28T05:32:29.290Z,89.19
2022-09-28T05:33:29.293Z,90.05
2022-09-28T05:34:29.317Z,91.38
2022-09-28T05:35:29.364Z,91.18
2022-09-28T05:36:29.284Z,91.42
2022-09-28T05:37:29.277Z,91.49
2022-09-28T05:38:29.294Z,92.14
2022-09-28T05:39:29.258Z,92.76
2022-09-28T05:40:29.345Z,93.07
2022-09-28T05:41:29.240Z,93.27
2022-09-28T05:42:29.256Z,93.02
2022-09-28T05:43:29.253Z,93.13
2022-09-28T05:44:29.289Z,92.51
2022-09-28T05:45:29.344Z,92.55
2022-09-28T05:46:29.265Z,92.86
2022-09-28T05:47:29.226Z,92.97
2022-09-28T05:48:29.221Z,93.93
2022-09-28T05:49:29.232Z,94.24
2022-09-28T05:50:29.246Z,94.55
2022-09-28T05:51:29.205Z,94.61
2022-09-28T05:52:29.180Z,94.71
2022-09-28T05:53:29.288Z,94.40
2022-09-28T05:54:29.245Z,93.99
2022-09-28T05:55:29.198Z,93.93
2022-09-28T05:56:29.171Z,94.70
2022-09-28T05:57:29.169Z,95.42
2022-09-28T05:58:29.186Z,95.10
2022-09-28T05:59:29.158Z,95.42
2022-09-28T06:00:29.191Z,95.62
2022-09-28T06:01:29.197Z,95.68
2022-09-28T06:02:29.254Z,95.47
2022-09-28T06:03:29.173Z,95.32
2022-09-28T06:04:29.202Z,95.23
2022-09-28T06:05:29.111Z,94.61
2022-09-28T06:06:29.161Z,94.56
2022-09-28T06:07:29.110Z,94.51
2022-09-28T06:08:29.112Z,93.85
2022-09-28T06:09:29.134Z,93.54
2022-09-28T06:10:29.165Z,93.13
2022-09-28T06:11:29.194Z,93.23
2022-09-28T06:12:29.104Z,92.93
2022-09-28T06:13:29.083Z,92.57
2022-09-28T06:14:29.102Z,92.88
2022-09-28T06:15:29.098Z,91.96
2022-09-28T06:16:29.199Z,92.06
2022-09-28T06:17:29.087Z,91.24
2022-09-28T06:18:29.053Z,90.93
2022-09-28T06:19:29.061Z,90.48
2022-09-28T06:20:29.128Z,89.90
2022-09-28T06:21:29.043Z,90.01
2022-09-28T06:22:29.049Z,90.52
2022-09-28T06:23:29.024Z,90.01
2022-09-28T06:24:29.086Z,90.42
2022-09-28T06:25:29.024Z,89.90
2022-09-28T06:26:29.101Z,89.97
2022-09-28T06:27:29.027Z,89.76
2022-09-28T06:28:28.995Z,89.36
2022-09-28T06:29:29.034Z,89.39
2022-09-28T06:30:29.145Z,89.25
2022-09-28T06:31:29.111Z,89.56
2022-09-28T06:32:29.036Z,89.50
2022-09-28T06:33:28.988Z,89.76
2022-09-28T06:34:28.984Z,89.66
2022-09-28T06:35:28.989Z,89.50
2022-09-28T06:36:28.972Z,89.36
2022-09-28T06:37:29.043Z,89.25
2022-09-28T06:38:28.962Z,89.25
2022-09-28T06:39:28.962Z,89.66
2022-09-28T06:40:29.045Z,89.15
2022-09-28T06:41:28.967Z,89.00
2022-09-28T06:42:28.944Z,88.80
2022-09-28T06:43:33.545Z,88.65
2022-09-28T06:44:30.933Z,89.27
2022-09-28T06:45:28.942Z,87.94
2022-09-28T06:46:29.004Z,86.85
2022-09-28T06:47:28.931Z,87.57
2022-09-28T06:48:29.906Z,87.22
2022-09-28T06:49:28.912Z,86.40
2022-09-28T06:50:28.908Z,85.55
2022-09-28T06:51:28.970Z,85.48
2022-09-28T06:52:28.956Z,86.30
2022-09-28T06:53:28.995Z,85.38
2022-09-28T06:54:28.885Z,85.99
2022-09-28T06:55:28.880Z,86.40
2022-09-28T06:56:32.703Z,86.88
2022-09-28T06:57:29.868Z,86.77
2022-09-28T06:58:28.911Z,85.91
2022-09-28T06:59:28.945Z,85.61
2022-09-28T07:00:28.879Z,85.40
2022-09-28T07:01:28.903Z,84.95
2022-09-28T07:02:28.868Z,83.93
2022-09-28T07:03:28.865Z,82.50
2022-09-28T07:04:28.861Z,82.40
2022-09-28T07:05:28.838Z,81.65
2022-09-28T07:06:28.833Z,80.62
2022-09-28T07:07:28.815Z,80.69
2022-09-28T07:08:28.852Z,80.89
2022-09-28T07:09:32.920Z,80.89
2022-09-28T07:10:29.863Z,80.48
2022-09-28T07:11:28.798Z,79.63
2022-09-28T07:12:28.822Z,80.28
2022-09-28T07:13:49.156Z,80.38
2022-09-28T07:14:47.018Z,80.58
2022-09-28T07:15:30.772Z,79.29
2022-09-28T07:16:46.525Z,78.38
2022-09-28T07:17:31.014Z,79.29
2022-09-28T07:18:28.887Z,79.50
2022-09-28T07:19:28.772Z,80.56
2022-09-28T07:20:28.744Z,80.15
2022-09-28T07:21:30.753Z,80.49
2022-09-28T07:22:40.587Z,82.43
2022-09-28T07:23:30.865Z,81.86
2022-09-28T07:24:28.781Z,82.68
2022-09-28T07:25:28.767Z,83.60
2022-09-28T07:26:28.772Z,84.17
2022-09-28T07:27:29.114Z,82.89
2022-09-28T07:28:29.752Z,83.05
2022-09-28T07:29:28.717Z,81.86
2022-09-28T07:30:28.709Z,81.96
2022-09-28T07:31:28.733Z,82.37
2022-09-28T07:32:28.698Z,83.09
2022-09-28T07:33:28.745Z,83.09
2022-09-28T07:34:28.680Z,83.39
2022-09-28T07:35:28.671Z,82.95
2022-09-28T07:36:28.705Z,83.46
2022-09-28T07:37:28.715Z,83.05
2022-09-28T07:38:28.666Z,80.60
2022-09-28T07:39:28.666Z,80.80
2022-09-28T07:40:28.672Z,80.35
2022-09-28T07:41:28.664Z,80.21
2022-09-28T07:42:28.683Z,80.28
2022-09-28T07:43:28.630Z,79.43
2022-09-28T07:44:28.683Z,79.12
2022-09-28T07:45:28.646Z,78.98
2022-09-28T07:46:28.615Z,77.51
2022-09-28T07:47:34.719Z,77.25
2022-09-28T07:48:30.612Z,78.57
2022-09-28T07:49:28.591Z,77.96
2022-09-28T07:50:28.623Z,78.47
2022-09-28T07:51:28.598Z,77.08
2022-09-28T07:52:28.610Z,77.18
2022-09-28T07:53:28.658Z,77.08
2022-09-28T07:54:28.575Z,77.48
2022-09-28T07:55:28.564Z,77.01
2022-09-28T07:56:28.588Z,77.11
2022-09-28T07:57:28.575Z,77.62
2022-09-28T07:58:28.639Z,77.42
2022-09-28T07:59:28.651Z,76.56
2022-09-28T08:00:33.213Z,76.97
2022-09-28T08:01:30.644Z,77.28
2022-09-28T08:02:28.605Z,77.38
2022-09-28T08:03:28.623Z,77.34
2022-09-28T08:04:28.601Z,79.28
2022-09-28T08:05:28.530Z,77.45
2022-09-28T08:06:28.624Z,76.63
2022-09-28T08:07:28.508Z,76.12
2022-09-28T08:08:28.509Z,77.04
2022-09-28T08:09:28.541Z,76.63
2022-09-28T08:10:28.503Z,75.61
2022-09-28T08:11:28.526Z,76.80
2022-09-28T08:12:28.485Z,75.92
2022-09-28T08:13:28.553Z,75.82
2022-09-28T08:14:28.523Z,76.87
2022-09-28T08:15:28.487Z,77.18
2022-09-28T08:16:28.626Z,77.18
2022-09-28T08:17:28.461Z,76.46
2022-09-28T08:18:28.466Z,75.68
2022-09-28T08:19:28.482Z,76.60
2022-09-28T08:20:28.475Z,77.22
2022-09-28T08:21:28.503Z,77.22
2022-09-28T08:22:28.431Z,77.22
2022-09-28T08:23:28.446Z,77.93
2022-09-28T08:24:28.448Z,79.36
2022-09-28T08:25:28.460Z,79.25
2022-09-28T08:26:28.504Z,78.44
2022-09-28T08:27:28.417Z,78.85
2022-09-28T08:28:28.426Z,78.44
2022-09-28T08:29:28.404Z,79.16
2022-09-28T08:30:28.472Z,79.52
2022-09-28T08:31:29.089Z,78.20
2022-09-28T08:32:28.391Z,79.02
2022-09-28T08:33:28.443Z,78.98
2022-09-28T08:34:28.412Z,79.28
2022-09-28T08:35:28.402Z,78.81
2022-09-28T08:36:28.436Z,79.28
2022-09-28T08:37:28.391Z,78.71
2022-09-28T08:38:28.406Z,77.38
2022-09-28T08:39:28.355Z,77.38
2022-09-28T08:40:28.418Z,78.50
2022-09-28T08:41:28.346Z,78.91
2022-09-28T08:42:28.351Z,78.91
2022-09-28T08:43:28.380Z,77.59
2022-09-28T08:44:29.245Z,78.00
2022-09-28T08:45:28.338Z,77.18
2022-09-28T08:46:28.375Z,76.97
2022-09-28T08:47:28.332Z,76.97
2022-09-28T08:48:28.369Z,77.18
2022-09-28T08:49:28.395Z,77.11
2022-09-28T08:50:29.279Z,77.22
2022-09-28T08:51:28.286Z,76.70
2022-09-28T08:52:28.295Z,77.25
2022-09-28T08:53:28.322Z,77.04
2022-09-28T08:54:28.290Z,77.66
2022-09-28T08:55:28.279Z,78.27
2022-09-28T08:56:28.313Z,78.48
2022-09-28T08:57:28.328Z,79.39
2022-09-28T08:58:28.267Z,79.19
2022-09-28T08:59:28.225Z,79.09
2022-09-28T09:00:28.305Z,78.99
2022-09-28T09:01:28.906Z,77.76
2022-09-28T09:02:28.396Z,79.05
2022-09-28T09:03:28.324Z,79.46
2022-09-28T09:04:28.228Z,79.36
2022-09-28T09:05:28.268Z,79.43
2022-09-28T09:06:28.243Z,79.43
2022-09-28T09:07:28.204Z,80.10
2022-09-28T09:08:28.178Z,79.43
2022-09-28T09:09:28.184Z,77.08
2022-09-28T09:10:28.205Z,77.48
2022-09-28T09:11:28.213Z,78.13
2022-09-28T09:12:28.174Z,77.42
2022-09-28T09:13:28.163Z,77.62
2022-09-28T09:14:28.186Z,77.28
2022-09-28T09:15:28.141Z,77.59
2022-09-28T09:16:28.221Z,77.18
2022-09-28T09:17:28.145Z,77.08
2022-09-28T09:18:28.189Z,77.79
2022-09-28T09:19:28.118Z,77.28
2022-09-28T09:20:28.127Z,78.09
2022-09-28T09:21:28.112Z,77.22
2022-09-28T09:22:28.131Z,77.18
2022-09-28T09:23:28.175Z,77.52
2022-09-28T09:24:28.101Z,76.87
2022-09-28T09:25:28.105Z,75.65
2022-09-28T09:26:28.092Z,75.65
2022-09-28T09:27:28.126Z,76.09
2022-09-28T09:28:28.082Z,77.08
2022-09-28T09:29:28.161Z,75.34
2022-09-28T09:30:31.019Z,75.34
2022-09-28T09:31:29.080Z,75.85
2022-09-28T09:32:28.048Z,77.28
2022-09-28T09:33:28.033Z,76.63
2022-09-28T09:34:28.039Z,76.63
2022-09-28T09:35:30.707Z,75.37
2022-09-28T09:36:29.131Z,75.48
2022-09-28T09:37:28.016Z,75.23
2022-09-28T09:38:28.004Z,75.13
2022-09-28T09:39:28.004Z,75.10
2022-09-28T09:40:28.145Z,74.49
2022-09-28T09:41:28.023Z,73.88
2022-09-28T09:42:28.011Z,73.26
2022-09-28T09:43:30.930Z,73.33
2022-09-28T09:44:29.275Z,73.74
2022-09-28T09:45:28.027Z,74.11
2022-09-28T09:46:28.024Z,72.31
2022-09-28T09:47:27.969Z,71.30
2022-09-28T09:48:27.976Z,71.70
2022-09-28T09:49:27.980Z,72.52
2022-09-28T09:50:28.001Z,72.48
2022-09-28T09:51:27.973Z,70.31
2022-09-28T09:52:27.977Z,71.64
2022-09-28T09:53:27.959Z,72.55
2022-09-28T09:54:27.918Z,72.31
2022-09-28T09:55:30.092Z,71.09
2022-09-28T09:56:28.914Z,69.53
2022-09-28T09:57:27.920Z,68.21
2022-09-28T09:58:27.936Z,69.50
2022-09-28T09:59:28.017Z,68.18
2022-09-28T10:00:27.948Z,67.64
2022-09-28T10:01:27.907Z,68.45
2022-09-28T10:02:27.932Z,68.15
2022-09-28T10:03:27.877Z,66.63
2022-09-28T10:04:27.850Z,68.42
2022-09-28T10:05:27.941Z,67.47
2022-09-28T10:06:27.869Z,64.03
2022-09-28T10:07:27.833Z,65.55
2022-09-28T10:08:28.842Z,65.27
2022-09-28T10:09:27.859Z,67.50
2022-09-28T10:10:28.875Z,66.46
2022-09-28T10:11:28.801Z,66.66
2022-09-28T10:12:28.763Z,66.30
2022-09-28T10:13:27.921Z,66.09
2022-09-28T10:14:27.793Z,62.68
2022-09-28T10:15:27.826Z,63.49
2022-09-28T10:16:27.802Z,66.40
2022-09-28T10:17:27.778Z,64.67
2022-09-28T10:18:27.767Z,64.67
2022-09-28T10:19:27.763Z,65.21
2022-09-28T10:20:27.788Z,65.24
2022-09-28T10:21:27.741Z,65.65
2022-09-28T10:22:27.725Z,65.27
2022-09-28T10:23:27.726Z,66.29
2022-09-28T10:24:27.729Z,67.61
2022-09-28T10:25:27.739Z,65.51
2022-09-28T10:26:27.688Z,64.93
2022-09-28T10:27:27.781Z,65.36
2022-09-28T10:28:27.684Z,65.47
2022-09-28T10:29:27.681Z,66.72
2022-09-28T10:30:27.819Z,67.66
2022-09-28T10:31:27.728Z,66.55
2022-09-28T10:32:27.690Z,66.88
2022-09-28T10:33:27.661Z,67.90
2022-09-28T10:34:27.640Z,68.51
2022-09-28T10:35:27.631Z,68.01
2022-09-28T10:36:27.627Z,69.15
2022-09-28T10:37:27.655Z,68.65
2022-09-28T10:38:27.605Z,70.17
2022-09-28T10:39:27.600Z,70.07
2022-09-28T10:40:27.780Z,70.48
2022-09-28T10:41:27.615Z,70.17
2022-09-28T10:42:27.726Z,70.28
2022-09-28T10:43:27.614Z,69.26
2022-09-28T10:44:27.605Z,70.10
2022-09-28T10:45:27.637Z,69.90
2022-09-28T10:46:27.671Z,70.31
2022-09-28T10:47:27.562Z,71.30
2022-09-28T10:48:27.548Z,72.21
2022-09-28T10:49:27.544Z,72.01
2022-09-28T10:50:27.586Z,72.28
2022-09-28T10:51:27.546Z,72.38
2022-09-28T10:52:27.523Z,74.28
2022-09-28T10:53:27.530Z,73.84
2022-09-28T10:54:27.585Z,73.09
2022-09-28T10:55:27.506Z,75.23
2022-09-28T10:56:27.499Z,73.91
2022-09-28T10:57:27.585Z,72.08
2022-09-28T10:58:27.481Z,72.55
2022-09-28T10:59:27.543Z,72.45
2022-09-28T11:00:27.479Z,72.34
2022-09-28T11:01:27.508Z,71.12
2022-09-28T11:02:27.686Z,71.20
2022-09-28T11:03:27.452Z,69.91
2022-09-28T11:04:27.472Z,70.82
2022-09-28T11:05:27.496Z,68.18
2022-09-28T11:06:27.440Z,69.70
2022-09-28T11:07:27.411Z,69.94
2022-09-28T11:08:27.408Z,69.43
2022-09-28T11:09:30.518Z,70.14
2022-09-28T11:10:28.405Z,71.53
2022-09-28T11:11:27.395Z,70.62
2022-09-28T11:12:27.439Z,71.94
2022-09-28T11:13:27.473Z,71.53
2022-09-28T11:14:27.366Z,68.79
2022-09-28T11:15:27.406Z,69.70
2022-09-28T11:16:27.418Z,69.60
2022-09-28T11:17:27.447Z,69.70
2022-09-28T11:18:27.377Z,70.31
2022-09-28T11:19:27.349Z,69.19
2022-09-28T11:20:28.554Z,68.44
2022-09-28T11:21:28.365Z,68.52
2022-09-28T11:22:27.346Z,68.32
2022-09-28T11:23:27.302Z,68.59
2022-09-28T11:24:27.520Z,66.96
2022-09-28T11:25:27.276Z,65.54
2022-09-28T11:26:27.251Z,65.16
2022-09-28T11:27:27.329Z,63.51
2022-09-28T11:28:27.274Z,64.93
2022-09-28T11:29:27.268Z,65.23
2022-09-28T11:30:27.272Z,66.05
2022-09-28T11:31:27.231Z,66.55
2022-09-28T11:32:27.281Z,66.46
2022-09-28T11:33:27.227Z,66.15
2022-09-28T11:34:36.541Z,65.54
2022-09-28T11:35:29.291Z,66.08
2022-09-28T11:36:27.291Z,66.58
2022-09-28T11:37:27.195Z,66.79
2022-09-28T11:38:27.203Z,66.38
2022-09-28T11:39:27.168Z,67.71
2022-09-28T11:40:27.192Z,66.49
2022-09-28T11:41:27.165Z,66.38
2022-09-28T11:42:27.152Z,66.79
2022-09-28T11:43:28.154Z,65.88
2022-09-28T11:44:30.863Z,65.41
2022-09-28T11:45:29.165Z,64.06
2022-09-28T11:46:27.203Z,65.45
2022-09-28T11:47:27.115Z,66.66
2022-09-28T11:48:27.094Z,64.94
2022-09-28T11:49:27.093Z,64.36
2022-09-28T11:50:27.091Z,65.51
2022-09-28T11:51:27.067Z,64.83
2022-09-28T11:52:27.089Z,65.51
2022-09-28T11:53:27.052Z,65.67
2022-09-28T11:54:27.041Z,65.67
2022-09-28T11:55:27.556Z,66.52
2022-09-28T11:56:27.081Z,66.41
2022-09-28T11:57:27.025Z,67.83
2022-09-28T11:58:27.048Z,67.57
2022-09-28T11:59:27.010Z,67.05
2022-09-28T12:00:27.120Z,66.96
2022-09-28T12:01:26.987Z,68.10
2022-09-28T12:02:27.060Z,66.99
2022-09-28T12:03:27.134Z,67.90
2022-09-28T12:04:26.982Z,68.21
2022-09-28T12:05:26.965Z,69.43
2022-09-28T12:06:26.950Z,69.29
2022-09-28T12:07:26.965Z,68.14
2022-09-28T12:08:27.993Z,67.53
2022-09-28T12:09:26.928Z,67.05
2022-09-28T12:10:26.926Z,66.35
2022-09-28T12:11:26.928Z,67.60
2022-09-28T12:12:26.986Z,66.99
2022-09-28T12:13:26.907Z,66.88
2022-09-28T12:14:26.886Z,66.99
2022-09-28T12:15:26.892Z,66.91
2022-09-28T12:16:53.688Z,67.73
2022-09-28T12:17:28.956Z,68.95
2022-09-28T12:18:26.858Z,68.44
2022-09-28T12:19:26.893Z,68.85
2022-09-28T12:20:27.359Z,68.34
2022-09-28T12:21:26.833Z,69.56
2022-09-28T12:22:26.861Z,69.26
2022-09-28T12:23:27.024Z,70.07
2022-09-28T12:24:26.841Z,71.91
2022-09-28T12:25:26.809Z,72.01
2022-09-28T12:26:26.816Z,72.62
2022-09-28T12:27:26.811Z,72.89
2022-09-28T12:28:26.786Z,72.92
2022-09-28T12:29:26.815Z,72.82
2022-09-28T12:30:26.825Z,72.58
2022-09-28T12:31:26.769Z,72.58
2022-09-28T12:32:26.769Z,73.60
2022-09-28T12:33:26.780Z,73.94
2022-09-28T12:34:26.741Z,74.93
2022-09-28T12:35:26.807Z,75.02
2022-09-28T12:36:26.732Z,74.01
2022-09-28T12:37:26.741Z,75.02
2022-09-28T12:38:26.733Z,72.58
2022-09-28T12:39:40.653Z,72.52
2022-09-28T12:40:28.768Z,71.91
2022-09-28T12:41:26.714Z,72.62
2022-09-28T12:42:26.701Z,72.48
2022-09-28T12:43:26.724Z,71.26
2022-09-28T12:44:26.682Z,72.75
2022-09-28T12:45:26.696Z,73.67
2022-09-28T12:46:26.679Z,73.63
2022-09-28T12:47:26.705Z,71.80
2022-09-28T12:48:26.660Z,70.38
2022-09-28T12:50:52.636Z,68.92
2022-09-28T12:51:28.614Z,70.08
2022-09-28T12:52:26.752Z,69.57
2022-09-28T12:53:26.635Z,68.15